Time;durP1;ratioP1;P1;durP2;ratioP2;P2;SDS_P1;SDS_P2;PMS_P1;PMS_P2;Temp;Humidity;BMP_temperature;BMP_pressure;BME280_temperature;BME280_humidity;BME280_pressure;Samples;Min_cycle;Max_cycle;Signal;HPM_P1;HPM_P2
2022/02/15 00:00:33;;;;;;;;;2.00;2.00;;;;;8.56;70.97;100407.72;5011760;28;47467;-83
2022/02/15 00:02:59;;;;;;;;;2.25;2.25;;;;;8.53;70.79;100402.69;5015325;28;45657;-80
2022/02/15 00:05:24;;;;;;;;;3.00;2.25;;;;;8.28;70.94;100368.69;5009406;28;45821;-82
2022/02/15 00:07:50;;;;;;;;;2.00;2.00;;;;;8.41;70.98;100391.31;5011017;28;47361;-81
2022/02/15 00:10:15;;;;;;;;;5.00;2.00;;;;;8.53;70.88;100391.44;5014511;28;46137;-80
2022/02/15 00:12:41;;;;;;;;;2.75;2.00;;;;;8.37;70.80;100362.88;5016049;28;45647;-81
2022/02/15 00:15:09;;;;;;;;;2.75;2.00;;;;;8.54;71.05;100391.31;5015157;28;45601;-81
2022/02/15 00:17:36;;;;;;;;;2.00;2.00;;;;;8.58;70.89;100400.66;5013317;28;46762;-82
2022/02/15 00:20:04;;;;;;;;;2.25;2.25;;;;;8.61;70.79;100431.75;5011930;28;46366;-80
2022/02/15 00:22:29;;;;;;;;;2.25;1.25;;;;;8.51;71.04;100395.91;5014145;28;45594;-81
2022/02/15 00:24:54;;;;;;;;;5.75;4.50;;;;;8.48;70.88;100394.34;5010248;28;45686;-81
2022/02/15 00:27:20;;;;;;;;;2.00;2.00;;;;;8.36;71.22;100374.28;5011725;28;47631;-80
2022/02/15 00:29:45;;;;;;;;;0.75;0.75;;;;;8.30;71.06;100359.84;5013431;28;47398;-82
2022/02/15 00:32:10;;;;;;;;;2.00;2.00;;;;;8.57;71.14;100413.78;5013435;28;45730;-81
2022/02/15 00:34:36;;;;;;;;;1.75;1.00;;;;;8.29;71.08;100370.34;5014679;28;45928;-81
2022/02/15 00:37:02;;;;;;;;;2.00;1.00;;;;;8.15;71.23;100349.56;5014841;28;45702;-81
2022/02/15 00:39:28;;;;;;;;;2.00;2.00;;;;;8.07;71.22;100352.66;5015196;28;46017;-80
2022/02/15 00:41:53;;;;;;;;;2.00;2.00;;;;;8.28;71.44;100392.16;5013457;28;45962;-80
2022/02/15 00:44:19;;;;;;;;;5.00;3.00;;;;;8.28;71.39;100394.78;5009173;28;45627;-81
2022/02/15 00:46:45;;;;;;;;;0.00;0.00;;;;;8.06;71.33;100373.59;5014031;28;48536;-80
2022/02/15 00:49:11;;;;;;;;;1.75;1.75;;;;;8.17;71.50;100385.03;5017022;28;45544;-81
2022/02/15 00:51:37;;;;;;;;;4.50;3.00;;;;;8.10;71.45;100378.53;5018369;28;45958;-80
2022/02/15 00:54:02;;;;;;;;;3.00;2.50;;;;;8.27;71.79;100417.41;5018458;28;45619;-81
2022/02/15 00:56:28;;;;;;;;;2.00;2.00;;;;;8.47;71.85;100442.28;5017571;28;46799;-82
2022/02/15 00:58:53;;;;;;;;;2.25;2.25;;;;;8.35;71.72;100430.88;5017354;28;45752;-80
2022/02/15 01:01:19;;;;;;;;;1.50;1.25;;;;;8.47;71.75;100450.13;5029023;28;45932;-80
2022/02/15 01:03:44;;;;;;;;;1.00;1.00;;;;;8.34;71.90;100449.22;5036471;28;45845;-81
2022/02/15 01:06:10;;;;;;;;;2.25;2.00;;;;;8.20;71.83;100417.94;5037780;28;45362;-84
2022/02/15 01:08:35;;;;;;;;;2.00;2.00;;;;;8.16;72.03;100422.50;5036369;28;47140;-81
2022/02/15 01:11:01;;;;;;;;;2.00;2.00;;;;;8.27;72.18;100448.75;5035599;28;45546;-80
2022/02/15 01:13:26;;;;;;;;;1.50;1.00;;;;;8.46;72.02;100464.09;5040261;28;45934;-81
2022/02/15 01:15:52;;;;;;;;;3.00;1.50;;;;;8.41;72.18;100460.94;5017073;28;45790;-82
2022/02/15 01:18:18;;;;;;;;;2.00;1.00;;;;;8.47;72.41;100472.78;5010658;28;45736;-82
2022/02/15 01:20:45;;;;;;;;;2.00;1.00;;;;;8.46;72.07;100464.09;5014342;28;45861;-81
2022/02/15 01:23:10;;;;;;;;;2.25;2.00;;;;;8.23;72.21;100462.09;5014770;28;45860;-82
2022/02/15 01:25:36;;;;;;;;;2.00;2.00;;;;;8.11;72.17;100428.94;5003076;28;45606;-80
2022/02/15 01:28:01;;;;;;;;;1.75;1.00;;;;;8.21;71.83;100450.91;5013138;28;46050;-81
2022/02/15 01:30:26;;;;;;;;;2.00;1.25;;;;;8.41;72.25;100476.63;5013827;28;45709;-81
2022/02/15 01:32:52;;;;;;;;;2.75;2.00;;;;;8.47;72.28;100493.66;5015908;28;45620;-80
2022/02/15 01:35:17;;;;;;;;;2.50;2.00;;;;;8.45;72.14;100485.06;5014225;28;47455;-81
2022/02/15 01:37:43;;;;;;;;;2.00;2.00;;;;;8.30;72.16;100459.03;5011976;28;45808;-80
2022/02/15 01:40:09;;;;;;;;;1.75;1.50;;;;;8.39;72.05;100468.88;5024566;28;45745;-82
2022/02/15 01:42:36;;;;;;;;;1.00;1.00;;;;;8.29;72.12;100456.47;5016483;28;45658;-82
2022/02/15 01:45:02;;;;;;;;;0.25;0.25;;;;;8.36;72.16;100484.75;5016598;28;45792;-81
2022/02/15 01:47:29;;;;;;;;;2.00;2.00;;;;;8.43;72.09;100495.59;5016055;28;46285;-82
2022/02/15 01:49:56;;;;;;;;;1.00;1.00;;;;;8.42;72.23;100488.75;5014209;28;46024;-80
2022/02/15 01:52:23;;;;;;;;;3.00;1.25;;;;;8.42;72.01;100494.75;5006819;28;45620;-81
2022/02/15 01:54:55;;;;;;;;;2.00;1.50;;;;;8.28;72.14;100481.75;5011894;28;46424;-82
2022/02/15 01:57:21;;;;;;;;;2.00;1.00;;;;;8.21;72.11;100483.06;5001900;28;48099;-82
2022/02/15 01:59:47;;;;;;;;;1.50;1.00;;;;;8.36;72.25;100518.69;5010946;28;45960;-80
2022/02/15 02:02:16;;;;;;;;;5.25;1.50;;;;;7.81;72.38;100423.91;5005785;28;45716;-81
2022/02/15 02:07:27;;;;;;;;;2.00;2.00;;;;;8.21;72.18;100506.53;5011762;28;46269;-81
2022/02/15 02:09:55;;;;;;;;;1.00;1.00;;;;;8.13;72.18;100482.72;5005951;28;45689;-82
2022/02/15 02:12:21;;;;;;;;;2.50;1.00;;;;;8.29;72.28;100530.41;5016701;28;45668;-82
2022/02/15 02:14:58;;;;;;;;;1.25;0.75;;;;;8.20;72.17;100520.53;5016014;28;48495;-82
2022/02/15 02:17:23;;;;;;;;;0.00;0.00;;;;;8.16;72.32;100519.03;5015859;28;46353;-82
2022/02/15 02:19:49;;;;;;;;;1.00;1.00;;;;;7.96;72.05;100485.53;5014392;28;45670;-81
2022/02/15 02:22:14;;;;;;;;;0.00;0.00;;;;;8.21;72.39;100527.41;5012222;28;45875;-81
2022/02/15 02:24:39;;;;;;;;;2.00;1.00;;;;;7.93;72.04;100490.97;5011212;28;46888;-80
2022/02/15 02:27:05;;;;;;;;;1.25;1.25;;;;;8.18;72.24;100525.00;5011351;28;46265;-81
2022/02/15 02:29:30;;;;;;;;;5.75;1.00;;;;;8.15;72.40;100527.78;5015415;28;45991;-81
2022/02/15 02:31:56;;;;;;;;;1.00;1.00;;;;;8.31;72.30;100546.00;5015258;28;45770;-81
2022/02/15 02:34:21;;;;;;;;;0.75;0.75;;;;;8.30;72.29;100541.72;5015417;28;46291;-82
2022/02/15 02:36:48;;;;;;;;;2.00;1.00;;;;;8.31;72.36;100538.16;5013162;28;46207;-81
2022/02/15 02:39:14;;;;;;;;;1.00;1.00;;;;;8.23;72.23;100529.94;5015208;28;45594;-81
2022/02/15 02:41:39;;;;;;;;;2.00;1.00;;;;;8.34;72.48;100551.00;5012441;28;46584;-81
2022/02/15 02:44:05;;;;;;;;;2.00;1.00;;;;;8.19;72.23;100555.41;5013519;28;46447;-83
2022/02/15 02:46:31;;;;;;;;;1.00;1.00;;;;;8.12;72.23;100517.56;5012161;28;48228;-82
2022/02/15 02:48:57;;;;;;;;;2.00;1.00;;;;;8.09;71.97;100515.16;5013515;28;45785;-82
2022/02/15 02:51:23;;;;;;;;;1.25;1.00;;;;;8.23;72.17;100553.44;5004229;28;45702;-81
2022/02/15 02:53:48;;;;;;;;;3.00;1.25;;;;;8.02;72.18;100506.88;5014373;28;46396;-82
2022/02/15 02:56:14;;;;;;;;;2.75;1.00;;;;;7.69;72.05;100456.78;5013734;28;46322;-81
2022/02/15 02:58:39;;;;;;;;;0.75;0.00;;;;;7.99;71.91;100517.47;5012160;28;45882;-80
2022/02/15 03:01:05;;;;;;;;;2.00;0.75;;;;;8.15;72.07;100540.84;5017949;28;45941;-79
2022/02/15 03:03:30;;;;;;;;;1.50;0.00;;;;;8.23;71.94;100553.44;5025639;28;48524;-79
2022/02/15 03:05:57;;;;;;;;;0.00;0.00;;;;;8.32;72.14;100585.03;5013592;28;46934;-80
2022/02/15 03:08:22;;;;;;;;;4.00;1.00;;;;;8.31;72.03;100580.75;5013121;28;45907;-81
2022/02/15 03:10:48;;;;;;;;;1.00;0.00;;;;;8.30;71.93;100580.84;5012880;28;45779;-81
2022/02/15 03:13:13;;;;;;;;;3.00;0.75;;;;;8.11;72.10;100549.78;5011559;28;45591;-79
2022/02/15 03:15:39;;;;;;;;;0.25;0.00;;;;;8.26;71.92;100588.00;5011484;28;46175;-81
2022/02/15 03:18:04;;;;;;;;;0.75;0.00;;;;;8.18;72.06;100590.25;5011856;28;45615;-80
2022/02/15 03:20:29;;;;;;;;;0.75;0.25;;;;;8.20;71.93;100598.00;5011248;28;45870;-82
2022/02/15 03:22:55;;;;;;;;;1.00;1.00;;;;;8.13;71.96;100591.47;5011595;28;46094;-82
2022/02/15 03:25:20;;;;;;;;;0.00;0.00;;;;;8.13;71.91;100610.56;5011937;28;46185;-83
2022/02/15 03:27:46;;;;;;;;;1.00;0.00;;;;;8.13;72.09;100609.72;5010830;28;46084;-81
2022/02/15 03:30:11;;;;;;;;;1.00;0.00;;;;;8.12;71.91;100611.50;5009948;28;45674;-80
2022/02/15 03:32:38;;;;;;;;;1.75;1.00;;;;;8.10;71.99;100644.66;5012151;28;45809;-81
2022/02/15 03:35:04;;;;;;;;;1.75;1.00;;;;;8.09;72.10;100635.19;5012447;28;45681;-82
2022/02/15 03:37:29;;;;;;;;;1.25;0.50;;;;;8.01;71.90;100617.38;5009720;28;46083;-82
2022/02/15 03:39:55;;;;;;;;;0.75;0.00;;;;;7.99;71.78;100621.81;5015027;28;45734;-81
2022/02/15 03:45:05;;;;;;;;;1.00;0.00;;;;;7.95;71.89;100625.56;5015286;28;46184;-82
2022/02/15 03:47:31;;;;;;;;;1.50;0.50;;;;;7.94;71.67;100618.66;5015163;28;45528;-81
2022/02/15 03:49:56;;;;;;;;;1.00;0.25;;;;;8.00;71.85;100646.13;5002941;28;45840;-82
2022/02/15 03:52:21;;;;;;;;;0.25;0.00;;;;;7.98;71.58;100640.19;5015528;28;46386;-82
2022/02/15 03:54:47;;;;;;;;;1.00;0.50;;;;;7.91;71.76;100628.44;5014438;28;46221;-80
2022/02/15 03:57:12;;;;;;;;;0.50;0.00;;;;;8.01;71.75;100659.09;5004241;28;45793;-79
2022/02/15 03:59:37;;;;;;;;;1.00;0.75;;;;;7.66;71.58;100604.75;5013183;28;45784;-81
2022/02/15 04:02:03;;;;;;;;;0.25;0.25;;;;;7.83;71.53;100643.69;5023908;28;48677;-81
2022/02/15 04:04:29;;;;;;;;;1.25;0.00;;;;;7.76;71.65;100624.16;5014325;28;45764;-82
2022/02/15 04:06:54;;;;;;;;;1.00;1.00;;;;;8.02;71.73;100670.38;5009062;28;46186;-82
2022/02/15 04:09:21;;;;;;;;;2.00;1.00;;;;;8.01;71.49;100676.53;5001639;28;45595;-82
2022/02/15 04:11:46;;;;;;;;;0.25;0.25;;;;;7.71;71.46;100636.63;5014878;28;45550;-81
2022/02/15 04:14:12;;;;;;;;;1.00;0.00;;;;;7.77;71.36;100654.50;5014174;28;46320;-82
2022/02/15 04:16:37;;;;;;;;;1.25;0.75;;;;;7.80;71.63;100672.56;5014590;28;45947;-80
2022/02/15 04:19:03;;;;;;;;;1.00;0.00;;;;;7.91;71.63;100704.94;5013555;28;45748;-81
2022/02/15 04:21:28;;;;;;;;;1.25;0.75;;;;;7.90;71.61;100703.25;5014372;28;46259;-81
2022/02/15 04:23:53;;;;;;;;;2.00;0.00;;;;;7.93;71.48;100713.50;5012731;28;45689;-81
2022/02/15 04:26:19;;;;;;;;;2.00;0.00;;;;;7.92;71.41;100713.59;5014255;28;45709;-81
2022/02/15 04:28:45;;;;;;;;;0.75;0.00;;;;;7.71;71.43;100688.75;5014743;28;45770;-80
2022/02/15 04:31:10;;;;;;;;;1.50;0.00;;;;;7.85;71.46;100709.66;5009736;28;46388;-80
2022/02/15 04:33:36;;;;;;;;;1.00;0.00;;;;;7.87;71.34;100728.66;5013988;28;46316;-82
2022/02/15 04:36:02;;;;;;;;;2.00;1.00;;;;;7.86;71.29;100730.44;5014686;28;45619;-81
2022/02/15 04:38:27;;;;;;;;;1.00;0.00;;;;;7.83;71.31;100734.97;5011434;28;45889;-81
2022/02/15 04:40:52;;;;;;;;;0.75;0.00;;;;;7.61;71.41;100698.03;5011134;28;45717;-81
2022/02/15 04:43:18;;;;;;;;;1.00;0.50;;;;;7.81;71.27;100736.84;5014025;28;46208;-81
2022/02/15 04:45:43;;;;;;;;;1.25;0.25;;;;;7.84;71.44;100741.88;5014525;28;45678;-82
2022/02/15 04:48:08;;;;;;;;;1.50;1.00;;;;;7.79;71.51;100744.75;5010127;28;45893;-81
2022/02/15 04:50:34;;;;;;;;;1.00;1.00;;;;;7.81;71.27;100745.50;5004734;28;46460;-82
2022/02/15 04:52:59;;;;;;;;;2.00;1.00;;;;;7.82;71.33;100754.19;5013865;28;46778;-81
2022/02/15 04:55:25;;;;;;;;;1.00;0.25;;;;;7.80;71.34;100756.03;5014415;28;45833;-81
2022/02/15 04:57:50;;;;;;;;;1.00;1.00;;;;;7.80;71.34;100756.03;5012377;28;45766;-81
2022/02/15 05:00:16;;;;;;;;;1.00;1.00;;;;;7.81;71.23;100768.16;5029514;28;46797;-81
2022/02/15 05:02:41;;;;;;;;;2.00;1.00;;;;;7.81;71.25;100773.34;5006882;28;45773;-81
2022/02/15 05:05:07;;;;;;;;;1.75;1.00;;;;;7.57;71.23;100726.88;5014436;28;45991;-81
2022/02/15 05:07:35;;;;;;;;;1.00;0.00;;;;;7.80;71.41;100767.31;5017516;28;45533;-81
2022/02/15 05:10:03;;;;;;;;;0.75;0.25;;;;;7.45;71.25;100713.72;5023083;28;45975;-81
2022/02/15 05:12:30;;;;;;;;;1.25;1.00;;;;;7.43;71.45;100705.97;5020696;28;45644;-79
2022/02/15 05:14:55;;;;;;;;;1.00;0.50;;;;;7.40;71.46;100711.34;5015391;28;45983;-81
2022/02/15 05:17:21;;;;;;;;;3.50;1.00;;;;;7.75;71.37;100768.50;5014856;28;45789;-81
2022/02/15 05:19:46;;;;;;;;;3.00;2.00;;;;;7.48;71.37;100734.38;5011430;28;46751;-82
2022/02/15 05:22:11;;;;;;;;;0.00;0.00;;;;;7.56;71.44;100753.88;5013471;28;46013;-82
2022/02/15 05:24:37;;;;;;;;;0.75;0.00;;;;;7.73;71.27;100779.00;5013457;28;45916;-81
2022/02/15 05:27:03;;;;;;;;;0.75;0.75;;;;;7.46;71.29;100734.47;5014747;28;45754;-80
2022/02/15 05:29:28;;;;;;;;;0.50;0.00;;;;;7.56;71.23;100746.06;5014270;28;46113;-82
2022/02/15 05:31:54;;;;;;;;;0.00;0.00;;;;;7.68;71.43;100769.75;5011466;28;46551;-81
2022/02/15 05:34:19;;;;;;;;;3.25;2.00;;;;;7.66;71.47;100766.41;5012613;28;45678;-81
2022/02/15 05:36:44;;;;;;;;;1.00;1.00;;;;;7.62;71.49;100776.16;5013127;28;45763;-81
2022/02/15 05:39:10;;;;;;;;;2.00;0.75;;;;;7.58;71.36;100779.88;5013703;28;45761;-81
2022/02/15 05:41:36;;;;;;;;;0.25;0.25;;;;;7.55;71.22;100783.50;5013855;28;46655;-80
2022/02/15 05:44:01;;;;;;;;;0.00;0.00;;;;;7.47;71.02;100770.03;5012479;28;46127;-81
2022/02/15 05:46:27;;;;;;;;;0.25;0.00;;;;;7.53;71.30;100785.34;5013259;28;45694;-81
2022/02/15 05:48:52;;;;;;;;;1.00;0.00;;;;;7.20;71.29;100732.47;5009008;28;46572;-80
2022/02/15 05:51:18;;;;;;;;;0.00;0.00;;;;;7.37;71.55;100763.66;5001205;28;45741;-81
2022/02/15 05:53:43;;;;;;;;;1.00;0.25;;;;;7.18;71.62;100736.09;5013395;28;45603;-81
2022/02/15 05:56:08;;;;;;;;;2.00;1.00;;;;;7.22;71.49;100748.88;5010477;28;45761;-81
2022/02/15 05:58:34;;;;;;;;;2.75;1.00;;;;;7.32;71.63;100778.72;5003991;28;45693;-81
2022/02/15 06:01:00;;;;;;;;;0.00;0.00;;;;;7.38;71.72;100788.81;5011473;28;48110;-80
2022/02/15 06:06:20;;;;;;;;;0.00;0.00;;;;;7.31;71.51;100779.63;5013185;28;45655;-82
2022/02/15 06:09:14;;;;;;;;;1.50;1.00;;;;;6.82;71.33;100698.09;5014305;28;46573;-82
2022/02/15 06:11:40;;;;;;;;;1.00;0.00;;;;;7.35;71.25;100795.94;4948079;28;47139;-81
2022/02/15 06:14:05;;;;;;;;;1.25;0.75;;;;;7.33;71.20;100793.44;4970507;28;45697;-81
2022/02/15 06:16:30;;;;;;;;;1.75;1.00;;;;;7.31;71.13;100797.03;4962291;28;45867;-80
2022/02/15 06:18:56;;;;;;;;;0.25;0.00;;;;;7.28;71.25;100792.00;4969407;28;46865;-81
2022/02/15 06:21:25;;;;;;;;;0.00;0.00;;;;;7.22;71.30;100790.56;4956270;28;48021;-82
2022/02/15 06:23:51;;;;;;;;;1.00;0.75;;;;;7.14;71.09;100779.69;4974803;28;46163;-80
2022/02/15 06:26:17;;;;;;;;;2.00;1.00;;;;;7.00;70.88;100769.19;4974634;28;45791;-81
2022/02/15 06:28:43;;;;;;;;;0.75;0.75;;;;;7.20;71.04;100810.63;4969468;28;47505;-82
2022/02/15 06:31:10;;;;;;;;;0.50;0.00;;;;;7.12;71.08;100792.84;4964684;28;47418;-80
2022/02/15 06:33:35;;;;;;;;;2.25;0.00;;;;;7.04;70.74;100789.78;4973347;28;45962;-82
2022/02/15 06:36:04;;;;;;;;;1.00;0.00;;;;;7.27;70.97;100832.00;4958836;28;46067;-82
2022/02/15 06:38:29;;;;;;;;;2.00;1.00;;;;;7.17;71.08;100816.03;4956252;28;47194;-82
2022/02/15 06:40:55;;;;;;;;;1.25;0.00;;;;;6.98;70.83;100787.50;4957196;28;46234;-82
2022/02/15 06:43:20;;;;;;;;;1.00;0.00;;;;;6.95;70.96;100790.28;4972389;28;45769;-82
2022/02/15 06:45:46;;;;;;;;;1.00;0.00;;;;;7.09;71.04;100808.59;4975947;28;45845;-82
2022/02/15 06:48:11;;;;;;;;;0.00;0.00;;;;;6.98;71.07;100810.94;4982038;28;45817;-82
2022/02/15 06:50:38;;;;;;;;;1.00;0.50;;;;;7.16;71.01;100862.06;5023851;28;47015;-82
2022/02/15 06:53:03;;;;;;;;;0.75;0.75;;;;;6.92;70.95;100821.69;5023063;28;45789;-81
2022/02/15 06:55:29;;;;;;;;;2.00;0.50;;;;;7.04;71.16;100841.88;5019397;28;45539;-82
2022/02/15 06:57:54;;;;;;;;;2.00;1.00;;;;;6.91;70.77;100830.41;5018980;28;45608;-81
2022/02/15 07:00:20;;;;;;;;;0.25;0.25;;;;;7.09;70.85;100854.66;5021840;28;46512;-82
2022/02/15 07:02:46;;;;;;;;;0.00;0.00;;;;;6.98;71.06;100836.97;5025745;28;45519;-80
2022/02/15 07:05:12;;;;;;;;;1.00;0.00;;;;;6.95;70.88;100836.31;5031890;28;45510;-81
2022/02/15 07:07:38;;;;;;;;;1.75;1.00;;;;;6.61;71.21;100788.59;5033704;28;45619;-81
2022/02/15 07:10:05;;;;;;;;;1.75;1.75;;;;;6.73;70.78;100811.41;5031673;28;45528;-82
2022/02/15 07:12:31;;;;;;;;;0.00;0.00;;;;;6.99;71.18;100856.06;5030706;28;45230;-81
2022/02/15 07:14:56;;;;;;;;;0.75;0.75;;;;;7.05;70.88;100866.16;5043532;28;45096;-80
2022/02/15 07:17:24;;;;;;;;;5.00;4.00;;;;;6.87;70.91;100841.91;5043513;28;45322;-82
2022/02/15 07:19:49;;;;;;;;;1.00;0.00;;;;;7.06;71.00;100860.88;5043489;28;45512;-81
2022/02/15 07:22:15;;;;;;;;;1.00;0.75;;;;;7.07;70.99;100882.56;5043756;28;44972;-81
2022/02/15 07:24:41;;;;;;;;;0.75;0.00;;;;;7.01;70.90;100860.28;5060289;28;45204;-82
2022/02/15 07:27:06;;;;;;;;;0.00;0.00;;;;;6.95;70.84;100855.38;5042192;28;45765;-82
2022/02/15 07:29:31;;;;;;;;;0.00;0.00;;;;;7.00;70.64;100878.59;5042723;28;45093;-80
2022/02/15 07:31:57;;;;;;;;;1.00;1.00;;;;;6.80;70.81;100847.53;5057495;28;44974;-82
2022/02/15 07:34:22;;;;;;;;;0.50;0.50;;;;;6.70;70.47;100824.56;5029035;28;45480;-82
2022/02/15 07:36:50;;;;;;;;;0.50;0.50;;;;;6.92;70.95;100852.94;5024380;28;45536;-80
2022/02/15 07:39:15;;;;;;;;;2.00;0.25;;;;;6.85;70.36;100842.94;5021409;28;46252;-81
2022/02/15 07:41:40;;;;;;;;;1.25;0.00;;;;;6.97;70.51;100865.69;5020387;28;45686;-82
2022/02/15 07:44:06;;;;;;;;;0.75;0.75;;;;;6.68;70.54;100818.59;5019495;28;45822;-81
2022/02/15 07:46:32;;;;;;;;;21.25;16.50;;;;;7.13;70.63;100895.25;5020973;28;45668;-81
2022/02/15 07:48:57;;;;;;;;;1.00;1.00;;;;;7.12;70.73;100899.63;5018969;28;46380;-80
2022/02/15 07:51:22;;;;;;;;;0.50;0.00;;;;;7.14;70.46;100904.75;5017453;28;45769;-80
2022/02/15 07:53:48;;;;;;;;;0.50;0.00;;;;;7.01;70.53;100875.91;5018405;28;45547;-81
2022/02/15 07:56:13;;;;;;;;;0.25;0.00;;;;;6.72;70.35;100833.13;5018287;28;46480;-82
2022/02/15 08:02:01;;;;;;;;;1.00;0.50;;;;;6.93;70.62;100852.00;5017271;28;45742;-82
2022/02/15 08:04:28;;;;;;;;;0.25;0.25;;;;;7.27;70.28;100913.63;5017275;28;45861;-80
2022/02/15 08:06:53;;;;;;;;;1.00;0.00;;;;;7.19;70.20;100897.53;5017346;28;45606;-83
2022/02/15 08:09:21;;;;;;;;;2.25;1.00;;;;;7.24;70.37;100908.56;5017666;28;45787;-82
2022/02/15 08:11:47;;;;;;;;;1.50;1.00;;;;;7.15;70.13;100894.25;5017393;28;45500;-81
2022/02/15 08:14:12;;;;;;;;;1.00;0.00;;;;;7.22;70.28;100904.38;5017594;28;45603;-82
2022/02/15 08:16:38;;;;;;;;;2.00;0.00;;;;;7.25;70.35;100917.22;5018045;28;45581;-81
2022/02/15 08:19:03;;;;;;;;;0.75;0.75;;;;;7.36;70.16;100928.75;5016411;28;46179;-81
2022/02/15 08:21:29;;;;;;;;;2.00;0.00;;;;;7.20;70.12;100895.78;5018518;28;45635;-81
2022/02/15 08:23:54;;;;;;;;;0.00;0.00;;;;;7.19;70.04;100884.50;5021014;28;45757;-81
2022/02/15 08:26:20;;;;;;;;;0.00;0.00;;;;;7.05;70.10;100880.03;5022312;28;46590;-82
2022/02/15 08:32:07;;;;;;;;;0.75;0.75;;;;;7.47;69.95;100941.22;5017870;28;45618;-82
2022/02/15 08:34:33;;;;;;;;;0.25;0.00;;;;;7.45;69.76;100933.47;5017301;28;45767;-82
2022/02/15 08:36:59;;;;;;;;;2.00;1.00;;;;;7.34;70.44;100938.41;5016738;28;46816;-82
2022/02/15 08:39:25;;;;;;;;;0.25;0.00;;;;;7.45;69.67;100956.13;5016851;28;46035;-82
2022/02/15 08:41:50;;;;;;;;;1.00;1.00;;;;;7.43;69.99;100960.56;5016927;28;45660;-81
2022/02/15 08:44:16;;;;;;;;;0.50;0.25;;;;;7.14;69.99;100908.19;5016914;28;45579;-82
2022/02/15 08:46:41;;;;;;;;;1.75;1.00;;;;;7.39;69.77;100940.81;5016860;28;45606;-81
2022/02/15 08:49:07;;;;;;;;;2.00;1.50;;;;;7.42;70.01;100959.72;5015674;28;48172;-81
2022/02/15 08:51:37;;;;;;;;;0.50;0.00;;;;;7.45;69.59;100959.56;5017195;28;45664;-81
2022/02/15 08:54:03;;;;;;;;;0.75;0.75;;;;;7.47;69.52;100949.06;5017477;28;45696;-81
2022/02/15 08:56:28;;;;;;;;;0.00;0.00;;;;;7.49;69.78;100948.06;5016499;28;46647;-81
2022/02/15 09:02:15;;;;;;;;;1.50;0.50;;;;;7.45;69.41;100943.09;5016635;28;45671;-78
2022/02/15 09:04:41;;;;;;;;;1.00;0.50;;;;;7.55;69.51;100945.13;5017090;28;45496;-77
2022/02/15 09:07:10;;;;;;;;;2.75;1.00;;;;;7.52;69.41;100934.00;5016575;28;46621;-80
2022/02/15 09:09:35;;;;;;;;;0.75;0.00;;;;;7.51;69.23;100914.06;5016716;28;46084;-79
2022/02/15 09:12:01;;;;;;;;;1.00;0.00;;;;;7.68;69.25;100924.44;5016781;28;45588;-81
2022/02/15 09:14:28;;;;;;;;;1.00;0.75;;;;;7.73;69.50;100914.59;5014924;28;45946;-80
2022/02/15 09:16:53;;;;;;;;;1.00;0.25;;;;;7.80;69.38;100915.13;5016356;28;46328;-80
2022/02/15 09:19:18;;;;;;;;;1.00;0.00;;;;;7.82;69.07;100908.06;5016388;28;46106;-79
2022/02/15 09:21:44;;;;;;;;;1.75;0.00;;;;;7.90;69.03;100922.34;5016295;28;45605;-82
2022/02/15 09:24:09;;;;;;;;;0.00;0.00;;;;;7.94;68.88;100912.56;5016640;28;45582;-80
2022/02/15 09:26:35;;;;;;;;;1.50;1.00;;;;;8.00;68.61;100935.72;5016362;28;45540;-80
2022/02/15 09:32:22;;;;;;;;;2.50;1.00;;;;;8.13;68.67;100928.06;5017389;28;45563;-80
2022/02/15 09:34:48;;;;;;;;;4.50;1.00;;;;;8.10;68.59;100921.22;5016572;28;45701;-80
2022/02/15 09:37:13;;;;;;;;;2.00;1.00;;;;;8.23;68.55;100935.28;5015918;28;45765;-79
2022/02/15 09:39:39;;;;;;;;;1.50;1.00;;;;;8.29;68.44;100937.56;5015913;28;45559;-80
2022/02/15 09:42:04;;;;;;;;;1.25;1.00;;;;;8.36;68.24;100935.50;5015848;28;45480;-81
2022/02/15 09:47:53;;;;;;;;;1.00;0.25;;;;;8.46;68.02;100933.19;5015672;28;46175;-79
2022/02/15 09:50:20;;;;;;;;;0.50;0.00;;;;;8.57;67.99;100944.72;5016448;28;46487;-80
2022/02/15 09:52:46;;;;;;;;;1.00;0.75;;;;;8.62;67.84;100932.22;5016080;28;45841;-79
2022/02/15 09:55:12;;;;;;;;;1.00;0.00;;;;;8.68;67.42;100928.41;5015649;28;45593;-80
2022/02/15 09:57:37;;;;;;;;;2.00;0.00;;;;;8.67;67.88;100930.19;5015547;28;45697;-79
2022/02/15 10:00:03;;;;;;;;;1.50;0.00;;;;;8.70;67.94;100916.09;5014008;28;47170;-78
2022/02/15 10:02:35;;;;;;;;;0.00;0.00;;;;;8.76;67.78;100916.56;5015399;28;45678;-80
2022/02/15 10:05:01;;;;;;;;;1.00;0.00;;;;;8.92;67.59;100934.81;5014082;28;45781;-80
2022/02/15 10:07:28;;;;;;;;;1.00;0.00;;;;;8.71;67.46;100895.13;5015417;28;45558;-79
2022/02/15 10:09:55;;;;;;;;;1.00;0.00;;;;;9.14;67.57;100944.81;5015535;28;46081;-79
2022/02/15 10:12:24;;;;;;;;;1.75;1.00;;;;;9.25;67.49;100950.25;5015380;28;45642;-81
2022/02/15 10:14:52;;;;;;;;;2.50;1.00;;;;;9.36;67.20;100950.44;5015717;28;45634;-82
2022/02/15 10:17:19;;;;;;;;;2.00;0.00;;;;;9.47;67.08;100950.63;5029879;28;48765;-82
2022/02/15 10:19:47;;;;;;;;;0.75;0.00;;;;;9.52;66.97;100932.88;5015231;28;46035;-82
2022/02/15 10:22:18;;;;;;;;;0.00;0.00;;;;;9.61;66.68;100931.47;5014943;28;45721;-79
2022/02/15 10:24:50;;;;;;;;;2.25;1.00;;;;;9.68;66.61;100940.63;5014889;28;45587;-80
2022/02/15 10:27:16;;;;;;;;;0.50;0.50;;;;;9.71;66.31;100931.75;5015076;28;45721;-80
2022/02/15 10:33:03;;;;;;;;;1.50;0.75;;;;;9.99;65.99;100971.78;5015608;28;45462;-79
2022/02/15 10:35:29;;;;;;;;;3.00;1.00;;;;;10.03;65.63;100960.22;5016987;28;45622;-82
2022/02/15 10:37:56;;;;;;;;;0.00;0.00;;;;;10.00;65.87;100947.31;5038084;28;46379;-82
2022/02/15 10:40:21;;;;;;;;;1.00;0.00;;;;;10.11;65.78;100965.78;5024531;28;45922;-81
2022/02/15 10:42:53;;;;;;;;;1.75;1.00;;;;;10.05;65.46;100947.00;5025443;28;45305;-79
2022/02/15 10:45:18;;;;;;;;;0.00;0.00;;;;;10.14;65.42;100963.94;5025504;28;45590;-81
2022/02/15 10:47:45;;;;;;;;;2.00;1.00;;;;;10.09;65.42;100936.25;5021543;28;46402;-79
2022/02/15 10:50:16;;;;;;;;;1.00;0.00;;;;;10.18;65.75;100931.41;5015709;28;46608;-80
2022/02/15 10:52:42;;;;;;;;;0.25;0.25;;;;;10.18;65.55;100927.00;5015741;28;45708;-79
2022/02/15 10:55:08;;;;;;;;;1.00;1.00;;;;;10.01;65.42;100899.25;5015169;28;45618;-79
2022/02/15 10:57:36;;;;;;;;;1.75;1.00;;;;;10.18;65.72;100918.31;5014609;28;46851;-80
2022/02/15 11:03:24;;;;;;;;;1.00;0.25;;;;;10.30;65.29;100928.00;5014664;28;45760;-80
2022/02/15 11:05:50;;;;;;;;;3.00;2.00;;;;;10.29;65.31;100915.84;5030047;28;45666;-80
2022/02/15 11:08:19;;;;;;;;;1.50;0.75;;;;;10.37;65.08;100922.25;5014532;28;45562;-80
2022/02/15 11:11:10;;;;;;;;;2.00;1.00;;;;;10.43;64.85;100916.63;5014099;28;45997;-84
2022/02/15 11:13:37;;;;;;;;;0.50;0.00;;;;;10.38;65.07;100894.28;5014594;28;45761;-80
2022/02/15 11:16:14;;;;;;;;;1.00;0.00;;;;;10.55;64.78;100903.66;5014832;28;45599;-80
2022/02/15 11:19:00;;;;;;;;;1.00;0.75;;;;;10.48;64.36;100884.88;5014658;28;46484;-85
2022/02/15 11:21:27;;;;;;;;;0.00;0.00;;;;;10.65;64.46;100897.69;5013822;28;46301;-83
2022/02/15 11:24:01;;;;;;;;;1.50;1.00;;;;;10.70;64.43;100895.59;5017105;28;45696;-81
2022/02/15 11:26:33;;;;;;;;;3.00;1.00;;;;;10.75;64.14;100897.91;5024652;28;45627;-80
2022/02/15 11:28:58;;;;;;;;;1.00;1.00;;;;;10.57;64.22;100865.09;5020393;28;46975;-80
2022/02/15 11:31:29;;;;;;;;;0.75;0.50;;;;;10.79;64.02;100895.00;5018956;28;45713;-83
2022/02/15 11:33:57;;;;;;;;;2.00;1.00;;;;;10.91;63.77;100923.00;5031272;28;45492;-77
2022/02/15 11:36:24;;;;;;;;;2.25;2.25;;;;;10.98;63.74;100912.94;5016902;28;45719;-80
2022/02/15 11:38:52;;;;;;;;;2.00;0.50;;;;;10.93;63.81;100901.94;5015896;28;45544;-79
2022/02/15 11:41:18;;;;;;;;;1.25;1.00;;;;;11.11;63.60;100912.94;5016041;28;46199;-79
2022/02/15 11:43:54;;;;;;;;;2.50;1.75;;;;;11.18;63.59;100907.16;5015338;28;45696;-80
2022/02/15 11:46:28;;;;;;;;;2.00;1.00;;;;;11.26;63.44;100909.28;5014871;28;45557;-80
2022/02/15 11:48:54;;;;;;;;;2.00;1.00;;;;;11.20;63.01;100879.06;5013124;28;46454;-80
2022/02/15 11:51:23;;;;;;;;;0.75;0.00;;;;;11.07;62.78;100844.13;5013813;28;48506;-83
2022/02/15 11:53:55;;;;;;;;;1.50;1.00;;;;;11.39;62.87;100886.47;5013754;28;45707;-78
2022/02/15 11:56:21;;;;;;;;;1.25;0.50;;;;;11.29;62.89;100857.44;5013123;28;45768;-80
2022/02/15 11:58:48;;;;;;;;;2.00;1.00;;;;;11.54;62.22;100879.34;5014900;28;46725;-78